Sighetu Marmatiei, Romania
Current Conditions -  °F | °C
As of 4:30 AM on Sunday 21 Dec 2014 (Local Time) from LRBM Reporting Station
Broken Clouds Broken Clouds  
Wind Chill: 36°   Ceiling: 24000
Heat Index: 39°   Visibility: 6mi
Dew Point: 37°   Wind: 5mph
Humidity: 93%   Direction: 310°NW
Pressure: 29.97"   Gusts: NA
Location:  47.93°N, 23.91°E
Report Text: LRBM 210230Z AUTO 31004KT 260V020 9999 FEW025 SCT031 BKN24004/03 Q1015 RERA
Loading
Personal Weather Stations






























Interactive Weather Map New forecast layout! Learn more

10-Day Weather Forecast

Advertisements
Track Severe Weather on mobile